Time,TemperatureF,DewpointF,PressureIn,WindDirection,WindDirectionDegrees,WindSpeedMPH,WindSpeedGustMPH,Humidity,HourlyPrecipIn,Conditions,Clouds,dailyrainin,SoftwareType,DateUTC
2013-01-04 00:02:00,15.2,11.8,30.07,West,270,10.0,16.0,86,0.00,,SKC,0.00,VWS V14.01,2013-01-04 06:02:00,
2013-01-04 00:07:00,15.2,11.5,30.07,West,264,9.0,16.0,85,0.00,,SKC,0.00,VWS V14.01,2013-01-04 06:07:00,
2013-01-04 00:12:00,15.1,11.4,30.07,West,267,10.0,14.0,85,0.00,,SKC,0.00,VWS V14.01,2013-01-04 06:12:00,
2013-01-04 00:17:00,14.9,11.2,30.06,West,275,11.0,16.0,85,0.00,,SKC,0.00,VWS V14.01,2013-01-04 06:17:00,
2013-01-04 00:22:00,14.4,10.7,30.06,West,267,10.0,14.0,85,0.00,,SKC,0.00,VWS V14.01,2013-01-04 06:22:00,
2013-01-04 00:27:00,14.1,10.4,30.06,West,265,7.0,14.0,85,0.00,,SKC,0.00,VWS V14.01,2013-01-04 06:27:00,
2013-01-04 00:32:00,13.8,10.1,30.05,West,260,7.0,8.0,85,0.00,,SKC,0.00,VWS V14.01,2013-01-04 06:32:00,
2013-01-04 00:37:00,14.0,10.6,30.05,West,265,10.0,12.0,86,0.00,,SKC,0.00,VWS V14.01,2013-01-04 06:37:00,
2013-01-04 00:42:00,13.8,10.1,30.05,WSW,256,7.0,11.0,85,0.00,,SKC,0.00,VWS V14.01,2013-01-04 06:42:00,
2013-01-04 00:47:00,13.8,10.4,30.05,West,263,10.0,13.0,86,0.00,,SKC,0.00,VWS V14.01,2013-01-04 06:47:00,
2013-01-04 00:52:00,13.8,10.4,30.05,West,264,11.0,11.0,86,0.00,,SKC,0.00,VWS V14.01,2013-01-04 06:52:00,
2013-01-04 00:57:00,13.8,10.4,30.05,West,271,7.0,11.0,86,0.00,,SKC,0.00,VWS V14.01,2013-01-04 06:57:00,
2013-01-04 01:02:00,13.5,10.1,30.05,West,271,6.0,9.0,86,0.00,,SKC,0.00,VWS V14.01,2013-01-04 07:02:00,
2013-01-04 01:07:00,13.1,9.7,30.05,West,264,5.0,9.0,86,0.00,,SKC,0.00,VWS V14.01,2013-01-04 07:07:00,
2013-01-04 01:12:00,12.9,9.2,30.05,West,265,5.0,7.0,85,0.00,,SKC,0.00,VWS V14.01,2013-01-04 07:12:00,
2013-01-04 01:17:00,12.4,8.8,30.05,West,265,5.0,7.0,85,0.00,,SKC,0.00,VWS V14.01,2013-01-04 07:17:00,
2013-01-04 01:22:00,12.4,9.0,30.05,West,263,5.0,6.0,86,0.00,,SKC,0.00,VWS V14.01,2013-01-04 07:22:00,
2013-01-04 01:27:00,12.6,9.2,30.05,WSW,251,6.0,7.0,86,0.00,,SKC,0.00,VWS V14.01,2013-01-04 07:27:00,
2013-01-04 01:32:00,12.6,9.2,30.04,West,265,6.0,7.0,86,0.00,,SKC,0.00,VWS V14.01,2013-01-04 07:32:00,
2013-01-04 01:37:00,12.8,9.4,30.04,West,260,6.0,7.0,86,0.00,,SKC,0.00,VWS V14.01,2013-01-04 07:37:00,
2013-01-04 01:42:00,13.3,9.9,30.04,West,264,8.0,8.0,86,0.00,,SKC,0.00,VWS V14.01,2013-01-04 07:42:00,
2013-01-04 01:47:00,13.6,10.2,30.03,West,270,6.0,12.0,86,0.00,,SKC,0.00,VWS V14.01,2013-01-04 07:47:00,
2013-01-04 01:52:00,14.0,10.6,30.03,West,272,7.0,10.0,86,0.00,,SKC,0.00,VWS V14.01,2013-01-04 07:52:00,
2013-01-04 01:57:00,14.0,10.3,30.03,West,271,9.0,12.0,85,0.00,,SKC,0.00,VWS V14.01,2013-01-04 07:57:00,
2013-01-04 02:02:00,14.3,10.9,30.03,West,271,11.0,11.0,86,0.00,,SKC,0.00,VWS V14.01,2013-01-04 08:02:00,
2013-01-04 02:07:00,14.1,10.4,30.03,West,271,10.0,11.0,85,0.00,,SKC,0.00,VWS V14.01,2013-01-04 08:07:00,
2013-01-04 02:12:00,14.0,10.3,30.03,WSW,258,8.0,11.0,85,0.00,,SKC,0.00,VWS V14.01,2013-01-04 08:12:00,
2013-01-04 02:17:00,14.0,10.3,30.03,West,271,6.0,13.0,85,0.00,,SKC,0.00,VWS V14.01,2013-01-04 08:17:00,
2013-01-04 02:22:00,14.1,10.4,30.03,West,270,6.0,10.0,85,0.00,,SKC,0.00,VWS V14.01,2013-01-04 08:22:00,
2013-01-04 02:27:00,14.1,10.4,30.03,West,272,7.0,10.0,85,0.00,,SKC,0.00,VWS V14.01,2013-01-04 08:27:00,
2013-01-04 02:32:00,14.3,10.6,30.02,West,271,8.0,10.0,85,0.00,,SKC,0.00,VWS V14.01,2013-01-04 08:32:00,
2013-01-04 02:37:00,14.3,10.6,30.02,West,274,8.0,10.0,85,0.00,,SKC,0.00,VWS V14.01,2013-01-04 08:37:00,
2013-01-04 02:42:00,14.1,10.4,30.02,West,261,3.0,7.0,85,0.00,,SKC,0.00,VWS V14.01,2013-01-04 08:42:00,
2013-01-04 02:47:00,14.1,10.4,30.02,West,272,5.0,10.0,85,0.00,,SKC,0.00,VWS V14.01,2013-01-04 08:47:00,
2013-01-04 02:52:00,14.4,10.7,30.02,West,274,5.0,7.0,85,0.00,,SKC,0.00,VWS V14.01,2013-01-04 08:52:00,
2013-01-04 02:57:00,14.4,10.7,30.02,West,277,3.0,7.0,85,0.00,,SKC,0.00,VWS V14.01,2013-01-04 08:57:00,
2013-01-04 03:02:00,14.4,10.7,30.02,West,272,5.0,6.0,85,0.00,,SKC,0.00,VWS V14.01,2013-01-04 09:02:00,
2013-01-04 03:07:00,14.8,10.9,30.02,West,275,4.0,8.0,84,0.00,,SKC,0.00,VWS V14.01,2013-01-04 09:07:00,
2013-01-04 03:12:00,15.1,11.4,30.02,West,277,7.0,8.0,85,0.00,,SKC,0.00,VWS V14.01,2013-01-04 09:12:00,
2013-01-04 03:17:00,15.1,11.1,30.02,West,278,8.0,8.0,84,0.00,,SKC,0.00,VWS V14.01,2013-01-04 09:17:00,
2013-01-04 03:22:00,15.2,11.2,30.02,West,275,6.0,7.0,84,0.00,,SKC,0.00,VWS V14.01,2013-01-04 09:22:00,
2013-01-04 03:26:00,15.4,11.4,30.02,West,278,6.0,8.0,84,0.00,,SKC,0.00,VWS V14.01,2013-01-04 09:26:00,
2013-01-04 03:31:00,15.6,11.6,30.02,West,281,6.0,8.0,84,0.00,,SKC,0.00,VWS V14.01,2013-01-04 09:31:00,
2013-01-04 03:36:00,15.7,11.5,30.02,West,270,6.0,9.0,83,0.00,,SKC,0.00,VWS V14.01,2013-01-04 09:36:00,
2013-01-04 03:41:00,15.9,11.7,30.02,West,277,6.0,8.0,83,0.00,,SKC,0.00,VWS V14.01,2013-01-04 09:41:00,
2013-01-04 03:46:00,15.9,11.7,30.01,West,271,7.0,8.0,83,0.00,,SKC,0.00,VWS V14.01,2013-01-04 09:46:00,
2013-01-04 03:51:00,16.2,12.0,30.01,West,277,7.0,10.0,83,0.00,,SKC,0.00,VWS V14.01,2013-01-04 09:51:00,
2013-01-04 03:56:00,16.5,12.2,30.01,West,271,8.0,10.0,83,0.00,,SKC,0.00,VWS V14.01,2013-01-04 09:56:00,
2013-01-04 04:01:00,16.7,12.2,30.01,West,278,6.0,6.0,82,0.00,,SKC,0.00,VWS V14.01,2013-01-04 10:01:00,
2013-01-04 04:06:00,16.7,12.2,30.01,West,277,5.0,8.0,82,0.00,,SKC,0.00,VWS V14.01,2013-01-04 10:06:00,
2013-01-04 04:11:00,16.7,12.2,30.01,West,280,6.0,7.0,82,0.00,,SKC,0.00,VWS V14.01,2013-01-04 10:11:00,
2013-01-04 04:16:00,16.7,12.2,30.01,West,267,7.0,8.0,82,0.00,,SKC,0.00,VWS V14.01,2013-01-04 10:16:00,
2013-01-04 04:21:00,16.5,12.0,30.01,West,275,7.0,7.0,82,0.00,,SKC,0.00,VWS V14.01,2013-01-04 10:21:00,
2013-01-04 04:26:00,16.5,12.0,30.01,West,281,5.0,8.0,82,0.00,,SKC,0.00,VWS V14.01,2013-01-04 10:26:00,
2013-01-04 04:31:00,16.4,11.9,30.01,WNW,285,3.0,6.0,82,0.00,,SKC,0.00,VWS V14.01,2013-01-04 10:31:00,
2013-01-04 04:36:00,15.9,11.1,30.01,WNW,288,0.0,6.0,81,0.00,,SKC,0.00,VWS V14.01,2013-01-04 10:36:00,
2013-01-04 04:41:00,15.6,11.1,30.01,WNW,296,2.0,3.0,82,0.00,,SKC,0.00,VWS V14.01,2013-01-04 10:41:00,
2013-01-04 04:46:00,15.4,10.9,30.02,WNW,296,3.0,6.0,82,0.00,,SKC,0.00,VWS V14.01,2013-01-04 10:46:00,
2013-01-04 04:51:00,14.9,10.4,30.02,WNW,299,1.0,5.0,82,0.00,,SKC,0.00,VWS V14.01,2013-01-04 10:51:00,
2013-01-04 04:56:00,15.2,11.0,30.02,NW,312,1.0,5.0,83,0.00,,SKC,0.00,VWS V14.01,2013-01-04 10:56:00,
2013-01-04 05:01:00,15.4,11.2,30.03,NW,316,0.0,2.0,83,0.00,,SKC,0.00,VWS V14.01,2013-01-04 11:01:00,
2013-01-04 05:06:00,15.2,10.7,30.03,NW,316,0.0,2.0,82,0.00,,SKC,0.00,VWS V14.01,2013-01-04 11:06:00,
2013-01-04 05:11:00,15.2,11.0,30.03,NW,316,0.0,0.0,83,0.00,,SKC,0.00,VWS V14.01,2013-01-04 11:11:00,
2013-01-04 05:16:00,15.4,11.2,30.03,NW,319,0.0,0.0,83,0.00,,SKC,0.00,VWS V14.01,2013-01-04 11:16:00,
2013-01-04 05:21:00,15.4,11.2,30.03,NW,319,0.0,0.0,83,0.00,,SKC,0.00,VWS V14.01,2013-01-04 11:21:00,
2013-01-04 05:26:00,15.6,11.4,30.03,NW,318,2.0,2.0,83,0.00,,SKC,0.00,VWS V14.01,2013-01-04 11:26:00,
2013-01-04 05:31:00,15.4,10.9,30.04,NW,318,0.0,1.0,82,0.00,,SKC,0.00,VWS V14.01,2013-01-04 11:31:00,
2013-01-04 05:36:00,15.1,10.6,30.04,NW,318,0.0,2.0,82,0.00,,SKC,0.00,VWS V14.01,2013-01-04 11:36:00,
2013-01-04 05:41:00,14.9,10.4,30.04,NW,318,0.0,0.0,82,0.00,,SKC,0.00,VWS V14.01,2013-01-04 11:41:00,
2013-01-04 05:46:00,14.8,10.6,30.04,NW,322,0.0,0.0,83,0.00,,SKC,0.00,VWS V14.01,2013-01-04 11:46:00,
2013-01-04 05:51:00,14.6,10.4,30.04,NW,322,0.0,0.0,83,0.00,,SKC,0.00,VWS V14.01,2013-01-04 11:51:00,
2013-01-04 05:56:00,14.3,10.1,30.04,NW,322,0.0,0.0,83,0.00,,SKC,0.00,VWS V14.01,2013-01-04 11:56:00,
2013-01-04 06:01:00,14.3,10.1,30.05,NW,322,0.0,0.0,83,0.00,,SKC,0.00,VWS V14.01,2013-01-04 12:01:00,
2013-01-04 06:06:00,14.1,9.9,30.05,NW,319,0.0,1.0,83,0.00,,SKC,0.00,VWS V14.01,2013-01-04 12:06:00,
2013-01-04 06:11:00,14.0,9.8,30.05,NW,319,0.0,0.0,83,0.00,,SKC,0.00,VWS V14.01,2013-01-04 12:11:00,
2013-01-04 06:16:00,14.1,9.9,30.05,NW,319,0.0,0.0,83,0.00,,SKC,0.00,VWS V14.01,2013-01-04 12:16:00,
2013-01-04 06:21:00,14.3,10.1,30.05,NW,319,0.0,0.0,83,0.00,,SKC,0.00,VWS V14.01,2013-01-04 12:21:00,
2013-01-04 06:26:00,14.6,10.4,30.05,NW,319,0.0,0.0,83,0.00,,SKC,0.00,VWS V14.01,2013-01-04 12:26:00,
2013-01-04 06:31:00,14.6,10.1,30.05,NW,319,0.0,0.0,82,0.00,,SKC,0.00,VWS V14.01,2013-01-04 12:31:00,
2013-01-04 06:36:00,14.6,10.1,30.05,NW,319,0.0,0.0,82,0.00,,SKC,0.00,VWS V14.01,2013-01-04 12:36:00,
2013-01-04 06:41:00,14.6,10.1,30.05,NW,319,0.0,0.0,82,0.00,,SKC,0.00,VWS V14.01,2013-01-04 12:41:00,
2013-01-04 06:46:00,14.4,9.6,30.05,NW,319,0.0,0.0,81,0.00,,SKC,0.00,VWS V14.01,2013-01-04 12:46:00,
2013-01-04 06:51:00,14.3,9.8,30.05,NW,319,0.0,0.0,82,0.00,,SKC,0.00,VWS V14.01,2013-01-04 12:51:00,
2013-01-04 06:56:00,14.3,9.6,30.05,NW,319,0.0,0.0,81,0.00,,SKC,0.00,VWS V14.01,2013-01-04 12:56:00,
2013-01-04 07:01:00,14.0,9.3,30.05,SW,233,0.0,0.0,81,0.00,,SKC,0.00,VWS V14.01,2013-01-04 13:01:00,
2013-01-04 07:06:00,14.1,9.6,30.05,SW,229,0.0,0.0,82,0.00,,SKC,0.00,VWS V14.01,2013-01-04 13:06:00,
2013-01-04 07:11:00,14.4,9.9,30.05,SW,232,0.0,0.0,82,0.00,,SKC,0.00,VWS V14.01,2013-01-04 13:11:00,
2013-01-04 07:16:00,14.9,10.4,30.04,West,274,3.0,3.0,82,0.00,,SKC,0.00,VWS V14.01,2013-01-04 13:16:00,
2013-01-04 07:21:00,14.9,9.9,30.04,WSW,251,3.0,3.0,80,0.00,,SKC,0.00,VWS V14.01,2013-01-04 13:21:00,
2013-01-04 07:26:00,14.8,9.5,30.04,WSW,248,0.0,3.0,79,0.00,,SKC,0.00,VWS V14.01,2013-01-04 13:26:00,
2013-01-04 07:31:00,14.4,9.1,30.04,WSW,240,0.0,1.0,79,0.00,,SKC,0.00,VWS V14.01,2013-01-04 13:31:00,
2013-01-04 07:36:00,14.1,8.8,30.04,South,172,0.0,3.0,79,0.00,,SKC,0.00,VWS V14.01,2013-01-04 13:36:00,
2013-01-04 07:41:00,14.1,9.1,30.04,South,174,0.0,0.0,80,0.00,,SKC,0.00,VWS V14.01,2013-01-04 13:41:00,
2013-01-04 07:46:00,14.1,9.1,30.06,South,174,0.0,0.0,80,0.00,,SKC,0.00,VWS V14.01,2013-01-04 13:46:00,
2013-01-04 07:51:00,14.6,9.8,30.06,SSW,210,0.0,0.0,81,0.00,,SKC,0.00,VWS V14.01,2013-01-04 13:51:00,
2013-01-04 07:56:00,15.2,10.1,30.06,SSW,212,0.0,0.0,80,0.00,,SKC,0.00,VWS V14.01,2013-01-04 13:56:00,
2013-01-04 08:01:00,14.9,9.0,30.05,SSW,212,0.0,0.0,77,0.00,,SKC,0.00,VWS V14.01,2013-01-04 14:01:00,
2013-01-04 08:06:00,14.6,9.3,30.05,SSW,212,0.0,0.0,79,0.00,,SKC,0.00,VWS V14.01,2013-01-04 14:06:00,
2013-01-04 08:11:00,14.8,9.5,30.05,SSW,209,0.0,0.0,79,0.00,,SKC,0.00,VWS V14.01,2013-01-04 14:11:00,
2013-01-04 08:16:00,14.9,9.6,30.06,SSW,209,0.0,0.0,79,0.00,,SKC,0.00,VWS V14.01,2013-01-04 14:16:00,
2013-01-04 08:21:00,15.2,9.9,30.06,SSW,206,0.0,0.0,79,0.00,,SKC,0.00,VWS V14.01,2013-01-04 14:21:00,
2013-01-04 08:26:00,15.7,10.1,30.06,SSW,206,0.0,0.0,78,0.00,,SKC,0.00,VWS V14.01,2013-01-04 14:26:00,
2013-01-04 08:31:00,16.2,10.3,30.06,SSW,208,0.0,0.0,77,0.00,,SKC,0.00,VWS V14.01,2013-01-04 14:31:00,
2013-01-04 08:36:00,16.5,10.3,30.06,WSW,241,1.0,1.0,76,0.00,,SKC,0.00,VWS V14.01,2013-01-04 14:36:00,
2013-01-04 08:41:00,16.9,10.4,30.06,WSW,243,0.0,0.0,75,0.00,,SKC,0.00,VWS V14.01,2013-01-04 14:41:00,
2013-01-04 08:46:00,17.0,10.2,30.06,WSW,243,0.0,0.0,74,0.00,,SKC,0.00,VWS V14.01,2013-01-04 14:46:00,
2013-01-04 08:51:00,17.3,10.4,30.06,WSW,243,0.0,0.0,74,0.00,,SKC,0.00,VWS V14.01,2013-01-04 14:51:00,
2013-01-04 08:56:00,17.2,10.1,30.06,WSW,243,0.0,1.0,73,0.00,,SKC,0.00,VWS V14.01,2013-01-04 14:56:00,
2013-01-04 09:01:00,17.3,10.4,30.06,WSW,243,0.0,0.0,74,0.00,,SKC,0.00,VWS V14.01,2013-01-04 15:01:00,
2013-01-04 09:06:00,17.8,10.9,30.06,WSW,244,0.0,1.0,74,0.00,,SKC,0.00,VWS V14.01,2013-01-04 15:06:00,
2013-01-04 09:11:00,18.0,10.8,30.06,WSW,254,0.0,0.0,73,0.00,,SKC,0.00,VWS V14.01,2013-01-04 15:11:00,
2013-01-04 09:16:00,18.1,11.2,30.07,WNW,294,1.0,2.0,74,0.00,,SKC,0.00,VWS V14.01,2013-01-04 15:16:00,
2013-01-04 09:21:00,18.6,11.4,30.07,NW,325,2.0,7.0,73,0.00,,SKC,0.00,VWS V14.01,2013-01-04 15:21:00,
2013-01-04 09:26:00,18.9,11.7,30.07,NW,315,2.0,7.0,73,0.00,,SKC,0.00,VWS V14.01,2013-01-04 15:26:00,
2013-01-04 09:31:00,18.9,11.7,30.08,NW,306,2.0,7.0,73,0.00,,SKC,0.00,VWS V14.01,2013-01-04 15:31:00,
2013-01-04 09:36:00,19.1,11.9,30.08,NW,319,2.0,7.0,73,0.00,,SKC,0.00,VWS V14.01,2013-01-04 15:36:00,
2013-01-04 09:41:00,19.2,11.7,30.08,NNW,329,1.0,5.0,72,0.00,,SKC,0.00,VWS V14.01,2013-01-04 15:41:00,
2013-01-04 09:46:00,19.2,11.7,30.08,NW,319,0.0,7.0,72,0.00,,SKC,0.00,VWS V14.01,2013-01-04 15:46:00,
2013-01-04 09:51:00,19.2,11.7,30.08,NW,320,2.0,3.0,72,0.00,,SKC,0.00,VWS V14.01,2013-01-04 15:51:00,
2013-01-04 09:56:00,19.4,11.9,30.08,NW,323,2.0,6.0,72,0.00,,SKC,0.00,VWS V14.01,2013-01-04 15:56:00,
2013-01-04 10:01:00,19.5,12.0,30.08,NW,311,5.0,5.0,72,0.00,,SKC,0.00,VWS V14.01,2013-01-04 16:01:00,
2013-01-04 10:06:00,19.7,12.1,30.08,NW,319,2.0,6.0,72,0.00,,SKC,0.00,VWS V14.01,2013-01-04 16:06:00,
2013-01-04 10:11:00,19.9,12.3,30.08,NW,306,3.0,3.0,72,0.00,,SKC,0.00,VWS V14.01,2013-01-04 16:11:00,
2013-01-04 10:16:00,20.0,12.4,30.08,NW,305,2.0,3.0,72,0.00,,SKC,0.00,VWS V14.01,2013-01-04 16:16:00,
2013-01-04 10:21:00,20.2,12.3,30.08,NNW,339,3.0,5.0,71,0.00,,SKC,0.00,VWS V14.01,2013-01-04 16:21:00,
2013-01-04 10:26:00,20.5,12.6,30.08,WNW,299,2.0,6.0,71,0.00,,SKC,0.00,VWS V14.01,2013-01-04 16:26:00,
2013-01-04 10:31:00,20.5,12.6,30.09,WNW,299,2.0,3.0,71,0.00,,SKC,0.00,VWS V14.01,2013-01-04 16:31:00,
2013-01-04 10:36:00,20.6,12.7,30.09,WNW,296,1.0,7.0,71,0.00,,SKC,0.00,VWS V14.01,2013-01-04 16:36:00,
2013-01-04 10:41:00,20.8,12.9,30.09,WNW,291,4.0,5.0,71,0.00,,SKC,0.00,VWS V14.01,2013-01-04 16:41:00,
2013-01-04 10:46:00,20.8,12.9,30.09,WNW,299,6.0,6.0,71,0.00,,SKC,0.00,VWS V14.01,2013-01-04 16:46:00,
2013-01-04 10:51:00,21.0,13.1,30.09,WNW,296,4.0,4.0,71,0.00,,SKC,0.00,VWS V14.01,2013-01-04 16:51:00,
2013-01-04 10:56:00,21.3,13.4,30.09,NNW,339,2.0,5.0,71,0.00,,SKC,0.00,VWS V14.01,2013-01-04 16:56:00,
2013-01-04 11:01:00,21.4,13.5,30.09,NW,305,1.0,6.0,71,0.00,,SKC,0.00,VWS V14.01,2013-01-04 17:01:00,
2013-01-04 11:06:00,21.6,13.7,30.09,NNW,328,1.0,6.0,71,0.00,,SKC,0.00,VWS V14.01,2013-01-04 17:06:00,
2013-01-04 11:11:00,21.9,13.6,30.09,NW,309,5.0,6.0,70,0.00,,SKC,0.00,VWS V14.01,2013-01-04 17:11:00,
2013-01-04 11:16:00,22.1,13.8,30.09,NNW,337,6.0,7.0,70,0.00,,SKC,0.00,VWS V14.01,2013-01-04 17:16:00,
2013-01-04 11:21:00,22.1,13.5,30.09,NW,322,4.0,6.0,69,0.00,,SKC,0.00,VWS V14.01,2013-01-04 17:21:00,
2013-01-04 11:26:00,22.2,13.6,30.09,NW,320,3.0,8.0,69,0.00,,SKC,0.00,VWS V14.01,2013-01-04 17:26:00,
2013-01-04 11:31:00,22.2,13.9,30.09,NNW,329,5.0,5.0,70,0.00,,SKC,0.00,VWS V14.01,2013-01-04 17:31:00,
2013-01-04 11:36:00,22.4,13.8,30.09,NNW,337,5.0,10.0,69,0.00,,SKC,0.00,VWS V14.01,2013-01-04 17:36:00,
2013-01-04 11:41:00,22.5,14.2,30.09,NW,319,2.0,6.0,70,0.00,,SKC,0.00,VWS V14.01,2013-01-04 17:41:00,
2013-01-04 11:46:00,22.9,14.6,30.09,NNW,339,3.0,7.0,70,0.00,,SKC,0.00,VWS V14.01,2013-01-04 17:46:00,
2013-01-04 11:51:00,22.9,14.6,30.09,NW,325,1.0,5.0,70,0.00,,SKC,0.00,VWS V14.01,2013-01-04 17:51:00,
2013-01-04 11:56:00,23.0,14.4,30.09,NNW,336,2.0,10.0,69,0.00,,SKC,0.00,VWS V14.01,2013-01-04 17:56:00,
2013-01-04 12:01:00,23.5,15.2,30.08,NNW,330,1.0,2.0,70,0.00,,SKC,0.00,VWS V14.01,2013-01-04 18:01:00,
2013-01-04 12:06:00,23.9,15.2,30.08,NNW,330,0.0,2.0,69,0.00,,SKC,0.00,VWS V14.01,2013-01-04 18:06:00,
2013-01-04 12:11:00,23.9,15.2,30.08,NNW,329,1.0,2.0,69,0.00,,SKC,0.00,VWS V14.01,2013-01-04 18:11:00,
2013-01-04 12:15:00,23.9,15.2,30.08,NNW,328,2.0,5.0,69,0.00,,SKC,0.00,VWS V14.01,2013-01-04 18:15:00,
2013-01-04 12:20:00,23.8,15.1,30.08,NW,308,1.0,2.0,69,0.00,,SKC,0.00,VWS V14.01,2013-01-04 18:20:00,
2013-01-04 12:25:00,23.9,14.9,30.08,NW,304,2.0,5.0,68,0.00,,SKC,0.00,VWS V14.01,2013-01-04 18:25:00,
2013-01-04 12:30:00,23.9,15.2,30.08,WNW,296,3.0,4.0,69,0.00,,SKC,0.00,VWS V14.01,2013-01-04 18:30:00,
2013-01-04 12:35:00,24.1,15.4,30.08,NW,311,2.0,5.0,69,0.00,,SKC,0.00,VWS V14.01,2013-01-04 18:35:00,
2013-01-04 12:40:00,24.4,15.4,30.08,NW,309,2.0,3.0,68,0.00,,SKC,0.00,VWS V14.01,2013-01-04 18:40:00,
2013-01-04 12:45:00,24.5,15.5,30.08,NW,304,3.0,5.0,68,0.00,,SKC,0.00,VWS V14.01,2013-01-04 18:45:00,
2013-01-04 12:50:00,24.5,15.5,30.08,WNW,298,4.0,4.0,68,0.00,,SKC,0.00,VWS V14.01,2013-01-04 18:50:00,
2013-01-04 12:55:00,24.5,15.8,30.08,WNW,296,1.0,5.0,69,0.00,,SKC,0.00,VWS V14.01,2013-01-04 18:55:00,
2013-01-04 13:00:00,24.8,16.4,30.08,WNW,296,2.0,3.0,70,0.00,,SKC,0.00,VWS V14.01,2013-01-04 19:00:00,
2013-01-04 13:05:00,24.8,16.1,30.08,WNW,296,2.0,5.0,69,0.00,,SKC,0.00,VWS V14.01,2013-01-04 19:05:00,
2013-01-04 13:10:00,24.8,16.1,30.08,WNW,299,2.0,3.0,69,0.00,,SKC,0.00,VWS V14.01,2013-01-04 19:10:00,
2013-01-04 13:15:00,25.1,16.0,30.07,NW,308,2.0,5.0,68,0.00,,SKC,0.00,VWS V14.01,2013-01-04 19:15:00,
2013-01-04 13:20:00,25.4,16.3,30.07,NW,315,3.0,3.0,68,0.00,,SKC,0.00,VWS V14.01,2013-01-04 19:20:00,
2013-01-04 13:25:00,25.6,16.9,30.07,NW,309,3.0,4.0,69,0.00,,SKC,0.00,VWS V14.01,2013-01-04 19:25:00,
2013-01-04 13:30:00,25.6,16.5,30.07,NW,316,2.0,5.0,68,0.00,,SKC,0.00,VWS V14.01,2013-01-04 19:30:00,
2013-01-04 13:35:00,25.8,16.4,30.07,NW,304,2.0,6.0,67,0.00,,SKC,0.00,VWS V14.01,2013-01-04 19:35:00,
2013-01-04 13:40:00,26.1,17.0,30.07,NW,306,2.0,3.0,68,0.00,,SKC,0.00,VWS V14.01,2013-01-04 19:40:00,
2013-01-04 13:45:00,26.3,16.9,30.07,WNW,289,2.0,6.0,67,0.00,,SKC,0.00,VWS V14.01,2013-01-04 19:45:00,
2013-01-04 13:50:00,26.3,16.9,30.07,WNW,302,3.0,3.0,67,0.00,,SKC,0.00,VWS V14.01,2013-01-04 19:50:00,
2013-01-04 13:55:00,26.4,16.9,30.07,WNW,302,0.0,4.0,67,0.00,,SKC,0.00,VWS V14.01,2013-01-04 19:55:00,
2013-01-04 14:00:00,26.9,17.1,30.07,NNW,340,2.0,2.0,66,0.00,,SKC,0.00,VWS V14.01,2013-01-04 20:00:00,
2013-01-04 14:05:00,26.9,17.1,30.07,NNW,329,1.0,5.0,66,0.00,,SKC,0.00,VWS V14.01,2013-01-04 20:05:00,
2013-01-04 14:10:00,26.9,16.7,30.07,NW,312,3.0,3.0,65,0.00,,SKC,0.00,VWS V14.01,2013-01-04 20:10:00,
2013-01-04 14:15:00,27.0,16.5,30.07,NW,313,3.0,7.0,64,0.00,,SKC,0.00,VWS V14.01,2013-01-04 20:15:00,
2013-01-04 14:20:00,27.0,16.8,30.07,NW,313,3.0,3.0,65,0.00,,SKC,0.00,VWS V14.01,2013-01-04 20:20:00,
2013-01-04 14:25:00,27.0,16.8,30.07,NW,308,2.0,4.0,65,0.00,,SKC,0.00,VWS V14.01,2013-01-04 20:25:00,
2013-01-04 14:30:00,26.9,16.7,30.08,NW,312,1.0,1.0,65,0.01,,SKC,0.01,VWS V14.01,2013-01-04 20:30:00,
2013-01-04 14:35:00,27.0,16.8,30.08,NW,309,3.0,3.0,65,0.01,,SKC,0.01,VWS V14.01,2013-01-04 20:35:00,
2013-01-04 14:40:00,26.9,17.1,30.08,NW,309,2.0,2.0,66,0.01,,SKC,0.01,VWS V14.01,2013-01-04 20:40:00,
2013-01-04 14:45:00,26.7,16.9,30.08,NW,306,3.0,3.0,66,0.01,,SKC,0.01,VWS V14.01,2013-01-04 20:45:00,
2013-01-04 14:50:00,26.6,16.8,30.08,NW,305,2.0,2.0,66,0.01,,SKC,0.01,VWS V14.01,2013-01-04 20:50:00,
2013-01-04 14:55:00,26.6,17.1,30.08,NW,306,1.0,3.0,67,0.01,,SKC,0.01,VWS V14.01,2013-01-04 20:55:00,
2013-01-04 15:00:00,26.6,16.8,30.09,NW,306,2.0,2.0,66,0.01,,SKC,0.01,VWS V14.01,2013-01-04 21:00:00,
2013-01-04 15:05:00,26.6,16.8,30.09,NW,306,2.0,2.0,66,0.01,,SKC,0.01,VWS V14.01,2013-01-04 21:05:00,
2013-01-04 15:10:00,26.6,17.1,30.09,NW,306,0.0,1.0,67,0.01,,SKC,0.01,VWS V14.01,2013-01-04 21:10:00,
2013-01-04 15:15:00,26.7,16.9,30.08,NW,306,1.0,1.0,66,0.01,,SKC,0.01,VWS V14.01,2013-01-04 21:15:00,
2013-01-04 15:20:00,26.6,16.8,30.08,NW,306,1.0,1.0,66,0.01,,SKC,0.01,VWS V14.01,2013-01-04 21:20:00,
2013-01-04 15:25:00,26.4,16.6,30.08,NW,306,0.0,1.0,66,0.01,,SKC,0.01,VWS V14.01,2013-01-04 21:25:00,
2013-01-04 15:30:00,26.4,16.6,30.09,NW,306,0.0,0.0,66,0.00,,SKC,0.01,VWS V14.01,2013-01-04 21:30:00,
2013-01-04 15:35:00,26.3,16.5,30.09,NW,306,0.0,1.0,66,0.00,,SKC,0.01,VWS V14.01,2013-01-04 21:35:00,
2013-01-04 15:40:00,26.0,16.2,30.09,NW,306,0.0,0.0,66,0.00,,SKC,0.01,VWS V14.01,2013-01-04 21:40:00,
2013-01-04 15:45:00,26.1,16.3,30.09,NW,306,0.0,0.0,66,0.00,,SKC,0.01,VWS V14.01,2013-01-04 21:45:00,
2013-01-04 15:50:00,26.6,16.8,30.09,NW,306,0.0,1.0,66,0.00,,SKC,0.01,VWS V14.01,2013-01-04 21:50:00,
2013-01-04 15:55:00,26.7,16.2,30.09,NW,306,0.0,1.0,64,0.00,,SKC,0.01,VWS V14.01,2013-01-04 21:55:00,
2013-01-04 16:00:00,25.8,16.0,30.09,NW,306,0.0,0.0,66,0.00,,SKC,0.01,VWS V14.01,2013-01-04 22:00:00,
2013-01-04 16:05:00,26.0,16.6,30.09,NW,306,0.0,0.0,67,0.00,,SKC,0.01,VWS V14.01,2013-01-04 22:05:00,
2013-01-04 16:10:00,26.0,16.2,30.09,NW,306,0.0,0.0,66,0.00,,SKC,0.01,VWS V14.01,2013-01-04 22:10:00,
2013-01-04 16:15:00,25.3,15.2,30.10,NW,304,0.0,2.0,65,0.00,,SKC,0.01,VWS V14.01,2013-01-04 22:15:00,
2013-01-04 16:20:00,23.8,14.5,30.10,NW,304,0.0,2.0,67,0.00,,SKC,0.01,VWS V14.01,2013-01-04 22:20:00,
2013-01-04 16:25:00,23.3,15.0,30.10,NW,305,0.0,0.0,70,0.00,,SKC,0.01,VWS V14.01,2013-01-04 22:25:00,
2013-01-04 16:30:00,23.0,14.7,30.11,NW,305,0.0,2.0,70,0.00,,SKC,0.01,VWS V14.01,2013-01-04 22:30:00,
2013-01-04 16:35:00,23.2,15.2,30.11,NW,305,0.0,1.0,71,0.00,,SKC,0.01,VWS V14.01,2013-01-04 22:35:00,
2013-01-04 16:40:00,23.5,15.5,30.11,NW,304,1.0,2.0,71,0.00,,SKC,0.01,VWS V14.01,2013-01-04 22:40:00,
2013-01-04 16:45:00,23.3,15.3,30.11,NW,305,0.0,1.0,71,0.00,,SKC,0.01,VWS V14.01,2013-01-04 22:45:00,
2013-01-04 16:50:00,23.2,15.5,30.11,NW,305,0.0,1.0,72,0.00,,SKC,0.01,VWS V14.01,2013-01-04 22:50:00,
2013-01-04 16:55:00,22.5,14.9,30.11,NW,304,0.0,1.0,72,0.00,,SKC,0.01,VWS V14.01,2013-01-04 22:55:00,
2013-01-04 17:00:00,21.6,14.3,30.11,WNW,291,2.0,2.0,73,0.00,,SKC,0.01,VWS V14.01,2013-01-04 23:00:00,
2013-01-04 17:05:00,21.0,14.0,30.11,WNW,291,0.0,2.0,74,0.00,,SKC,0.01,VWS V14.01,2013-01-04 23:05:00,
2013-01-04 17:10:00,20.5,13.9,30.11,WNW,291,0.0,2.0,75,0.00,,SKC,0.01,VWS V14.01,2013-01-04 23:10:00,
2013-01-04 17:15:00,20.3,13.7,30.12,WNW,291,0.0,0.0,75,0.00,,SKC,0.01,VWS V14.01,2013-01-04 23:15:00,
2013-01-04 17:20:00,20.3,14.0,30.12,WNW,294,0.0,0.0,76,0.00,,SKC,0.01,VWS V14.01,2013-01-04 23:20:00,
2013-01-04 17:25:00,20.3,14.0,30.12,WNW,294,0.0,0.0,76,0.00,,SKC,0.01,VWS V14.01,2013-01-04 23:25:00,
2013-01-04 17:30:00,20.2,14.2,30.12,WNW,294,0.0,0.0,77,0.00,,SKC,0.01,VWS V14.01,2013-01-04 23:30:00,
2013-01-04 17:35:00,20.5,14.4,30.12,WNW,294,0.0,0.0,77,0.00,,SKC,0.01,VWS V14.01,2013-01-04 23:35:00,
2013-01-04 17:40:00,20.6,14.6,30.12,WNW,294,0.0,0.0,77,0.00,,SKC,0.01,VWS V14.01,2013-01-04 23:40:00,
2013-01-04 17:45:00,20.6,14.2,30.13,WNW,291,0.0,0.0,76,0.00,,SKC,0.01,VWS V14.01,2013-01-04 23:45:00,
2013-01-04 17:50:00,20.5,14.1,30.13,WNW,292,0.0,0.0,76,0.00,,SKC,0.01,VWS V14.01,2013-01-04 23:50:00,
2013-01-04 17:55:00,20.3,14.0,30.13,WNW,292,0.0,0.0,76,0.00,,SKC,0.01,VWS V14.01,2013-01-04 23:55:00,
2013-01-04 18:00:00,20.2,14.2,30.12,WNW,295,0.0,0.0,77,0.00,,SKC,0.01,VWS V14.01,2013-01-05 00:00:00,
2013-01-04 18:05:00,20.5,14.4,30.12,WNW,295,0.0,0.0,77,0.00,,SKC,0.01,VWS V14.01,2013-01-05 00:05:00,
2013-01-04 18:10:00,20.6,14.6,30.12,WNW,294,0.0,0.0,77,0.00,,SKC,0.01,VWS V14.01,2013-01-05 00:10:00,
2013-01-04 18:15:00,20.6,14.2,30.12,WNW,294,0.0,0.0,76,0.00,,SKC,0.01,VWS V14.01,2013-01-05 00:15:00,
2013-01-04 18:20:00,20.5,14.1,30.12,WNW,294,0.0,0.0,76,0.00,,SKC,0.01,VWS V14.01,2013-01-05 00:20:00,
2013-01-04 18:25:00,20.5,14.4,30.12,WNW,295,0.0,0.0,77,0.00,,SKC,0.01,VWS V14.01,2013-01-05 00:25:00,
2013-01-04 18:30:00,20.3,14.0,30.12,WNW,294,0.0,0.0,76,0.00,,SKC,0.01,VWS V14.01,2013-01-05 00:30:00,
2013-01-04 18:35:00,19.4,12.8,30.12,WNW,291,0.0,0.0,75,0.00,,SKC,0.01,VWS V14.01,2013-01-05 00:35:00,
2013-01-04 18:40:00,17.5,11.5,30.12,WNW,291,0.0,1.0,77,0.00,,SKC,0.01,VWS V14.01,2013-01-05 00:40:00,
2013-01-04 18:45:00,16.9,11.8,30.12,WNW,291,0.0,0.0,80,0.00,,SKC,0.01,VWS V14.01,2013-01-05 00:45:00,
2013-01-04 18:50:00,16.7,11.9,30.12,WNW,291,0.0,0.0,81,0.00,,SKC,0.01,VWS V14.01,2013-01-05 00:50:00,
2013-01-04 18:55:00,16.5,11.7,30.12,WNW,291,0.0,0.0,81,0.00,,SKC,0.01,VWS V14.01,2013-01-05 00:55:00,
2013-01-04 19:00:00,16.7,12.4,30.12,WNW,291,0.0,0.0,83,0.00,,SKC,0.01,VWS V14.01,2013-01-05 01:00:00,
2013-01-04 19:05:00,16.9,12.6,30.12,WNW,291,0.0,0.0,83,0.00,,SKC,0.01,VWS V14.01,2013-01-05 01:05:00,
2013-01-04 19:10:00,16.7,12.4,30.12,WNW,291,0.0,0.0,83,0.00,,SKC,0.01,VWS V14.01,2013-01-05 01:10:00,
2013-01-04 19:15:00,16.7,12.4,30.12,WNW,291,0.0,0.0,83,0.00,,SKC,0.01,VWS V14.01,2013-01-05 01:15:00,
2013-01-04 19:20:00,16.5,12.2,30.12,WNW,291,0.0,0.0,83,0.00,,SKC,0.01,VWS V14.01,2013-01-05 01:20:00,
2013-01-04 19:25:00,16.7,12.7,30.12,WNW,291,0.0,0.0,84,0.00,,SKC,0.01,VWS V14.01,2013-01-05 01:25:00,
2013-01-04 19:30:00,17.0,13.0,30.12,WNW,291,0.0,0.0,84,0.00,,SKC,0.01,VWS V14.01,2013-01-05 01:30:00,
2013-01-04 19:35:00,17.5,13.5,30.12,WNW,291,0.0,0.0,84,0.00,,SKC,0.01,VWS V14.01,2013-01-05 01:35:00,
2013-01-04 19:40:00,18.0,13.7,30.12,WNW,291,0.0,0.0,83,0.00,,SKC,0.01,VWS V14.01,2013-01-05 01:40:00,
2013-01-04 19:45:00,18.1,13.8,30.12,WNW,291,0.0,0.0,83,0.00,,SKC,0.01,VWS V14.01,2013-01-05 01:45:00,
2013-01-04 19:50:00,18.1,13.5,30.12,WNW,291,0.0,1.0,82,0.00,,SKC,0.01,VWS V14.01,2013-01-05 01:50:00,
2013-01-04 19:55:00,18.1,13.5,30.12,WNW,291,0.0,0.0,82,0.00,,SKC,0.01,VWS V14.01,2013-01-05 01:55:00,
2013-01-04 20:00:00,18.0,13.4,30.11,WNW,291,0.0,0.0,82,0.00,,SKC,0.01,VWS V14.01,2013-01-05 02:00:00,
2013-01-04 20:05:00,18.1,13.8,30.11,WNW,291,0.0,0.0,83,0.00,,SKC,0.01,VWS V14.01,2013-01-05 02:05:00,
2013-01-04 20:10:00,18.3,13.7,30.11,WNW,291,0.0,0.0,82,0.00,,SKC,0.01,VWS V14.01,2013-01-05 02:10:00,
2013-01-04 20:15:00,18.4,13.8,30.10,WNW,291,0.0,0.0,82,0.00,,SKC,0.01,VWS V14.01,2013-01-05 02:15:00,
2013-01-04 20:20:00,18.4,13.8,30.10,WNW,291,0.0,0.0,82,0.00,,SKC,0.01,VWS V14.01,2013-01-05 02:20:00,
2013-01-04 20:25:00,18.3,13.7,30.10,WNW,291,0.0,0.0,82,0.00,,SKC,0.01,VWS V14.01,2013-01-05 02:25:00,
2013-01-04 20:30:00,18.1,13.3,30.10,WNW,291,0.0,0.0,81,0.00,,SKC,0.01,VWS V14.01,2013-01-05 02:30:00,
2013-01-04 20:35:00,17.7,12.9,30.10,WNW,289,1.0,2.0,81,0.00,,SKC,0.01,VWS V14.01,2013-01-05 02:35:00,
2013-01-04 20:40:00,15.9,10.8,30.10,West,274,1.0,2.0,80,0.00,,SKC,0.01,VWS V14.01,2013-01-05 02:40:00,
2013-01-04 20:45:00,13.1,7.8,30.12,West,265,1.0,3.0,79,0.00,,SKC,0.01,VWS V14.01,2013-01-05 02:45:00,
2013-01-04 20:50:00,11.7,7.6,30.12,West,278,2.0,3.0,83,0.00,,SKC,0.01,VWS V14.01,2013-01-05 02:50:00,
2013-01-04 20:55:00,10.9,7.0,30.12,WNW,287,2.0,4.0,84,0.00,,SKC,0.01,VWS V14.01,2013-01-05 02:55:00,
2013-01-04 21:00:00,10.4,6.8,30.13,WNW,289,2.0,4.0,85,0.00,,SKC,0.01,VWS V14.01,2013-01-05 03:00:00,
2013-01-04 21:05:00,10.9,7.8,30.13,WNW,292,1.0,2.0,87,0.00,,SKC,0.01,VWS V14.01,2013-01-05 03:05:00,
2013-01-04 21:10:00,11.4,8.5,30.13,WNW,294,0.0,2.0,88,0.00,,SKC,0.01,VWS V14.01,2013-01-05 03:10:00,
2013-01-04 21:15:00,12.1,9.2,30.11,WNW,289,1.0,2.0,88,0.00,,SKC,0.01,VWS V14.01,2013-01-05 03:15:00,
2013-01-04 21:20:00,12.1,9.2,30.11,WSW,250,0.0,2.0,88,0.00,,SKC,0.01,VWS V14.01,2013-01-05 03:20:00,
2013-01-04 21:25:00,11.2,7.8,30.11,WSW,250,0.0,2.0,86,0.00,,SKC,0.01,VWS V14.01,2013-01-05 03:25:00,
2013-01-04 21:30:00,10.7,7.6,30.11,WSW,250,0.0,2.0,87,0.00,,SKC,0.01,VWS V14.01,2013-01-05 03:30:00,
2013-01-04 21:35:00,10.5,7.4,30.11,WSW,250,0.0,0.0,87,0.00,,SKC,0.01,VWS V14.01,2013-01-05 03:35:00,
2013-01-04 21:40:00,10.5,7.7,30.11,WSW,250,0.0,0.0,88,0.00,,SKC,0.01,VWS V14.01,2013-01-05 03:40:00,
2013-01-04 21:45:00,10.7,7.8,30.10,WSW,254,0.0,0.0,88,0.00,,SKC,0.01,VWS V14.01,2013-01-05 03:45:00,
2013-01-04 21:50:00,11.1,8.5,30.10,WSW,254,0.0,0.0,89,0.00,,SKC,0.01,VWS V14.01,2013-01-05 03:50:00,
2013-01-04 21:55:00,11.7,9.1,30.10,WSW,254,0.0,0.0,89,0.00,,SKC,0.01,VWS V14.01,2013-01-05 03:55:00,
2013-01-04 22:00:00,12.3,9.9,30.10,WSW,254,0.0,0.0,90,0.00,,SKC,0.01,VWS V14.01,2013-01-05 04:00:00,
2013-01-04 22:05:00,13.1,10.7,30.10,WSW,254,0.0,0.0,90,0.00,,SKC,0.01,VWS V14.01,2013-01-05 04:05:00,
2013-01-04 22:10:00,13.1,10.7,30.10,WSW,254,0.0,0.0,90,0.00,,SKC,0.01,VWS V14.01,2013-01-05 04:10:00,
2013-01-04 22:15:00,13.6,11.2,30.10,WSW,254,0.0,0.0,90,0.00,,SKC,0.01,VWS V14.01,2013-01-05 04:15:00,
2013-01-04 22:20:00,14.0,11.6,30.10,WSW,254,0.0,0.0,90,0.00,,SKC,0.01,VWS V14.01,2013-01-05 04:20:00,
2013-01-04 22:25:00,14.1,11.7,30.10,WSW,254,0.0,0.0,90,0.00,,SKC,0.01,VWS V14.01,2013-01-05 04:25:00,
2013-01-04 22:30:00,14.4,12.0,30.10,WSW,254,0.0,0.0,90,0.00,,SKC,0.01,VWS V14.01,2013-01-05 04:30:00,
2013-01-04 22:34:00,14.6,12.2,30.10,WSW,254,0.0,0.0,90,0.00,,SKC,0.01,VWS V14.01,2013-01-05 04:34:00,
2013-01-04 22:39:00,14.4,11.8,30.10,WSW,254,0.0,0.0,89,0.00,,SKC,0.01,VWS V14.01,2013-01-05 04:39:00,
2013-01-04 22:44:00,14.1,11.5,30.09,WSW,254,0.0,0.0,89,0.00,,SKC,0.01,VWS V14.01,2013-01-05 04:44:00,
2013-01-04 22:49:00,13.8,11.2,30.09,WSW,256,0.0,0.0,89,0.00,,SKC,0.01,VWS V14.01,2013-01-05 04:49:00,
2013-01-04 22:54:00,14.0,11.6,30.09,North,354,0.0,1.0,90,0.00,,SKC,0.01,VWS V14.01,2013-01-05 04:54:00,
2013-01-04 22:59:00,13.5,10.6,30.09,NE,44,1.0,2.0,88,0.00,,SKC,0.01,VWS V14.01,2013-01-05 04:59:00,
2013-01-04 23:00:00,13.3,10.4,30.09,NE,44,1.0,2.0,88,0.00,,SKC,0.01,VWS V14.01,2013-01-05 05:00:00,
2013-01-04 23:02:00,12.8,9.7,30.09,NE,41,1.0,2.0,87,0.00,,SKC,0.01,VWS V14.01,2013-01-05 05:02:00,
2013-01-04 23:07:00,11.9,9.0,30.09,NE,34,2.0,2.0,88,0.00,,SKC,0.01,VWS V14.01,2013-01-05 05:07:00,
2013-01-04 23:12:00,11.1,8.2,30.09,NE,44,1.0,2.0,88,0.00,,SKC,0.01,VWS V14.01,2013-01-05 05:12:00,
2013-01-04 23:17:00,10.9,8.3,30.09,NE,54,1.0,2.0,89,0.00,,SKC,0.01,VWS V14.01,2013-01-05 05:17:00,
2013-01-04 23:22:00,11.6,9.2,30.09,NE,45,0.0,2.0,90,0.00,,SKC,0.01,VWS V14.01,2013-01-05 05:22:00,
2013-01-04 23:27:00,11.7,9.3,30.09,NE,44,0.0,2.0,90,0.00,,SKC,0.01,VWS V14.01,2013-01-05 05:27:00,
2013-01-04 23:32:00,11.9,9.5,30.09,NE,44,0.0,0.0,90,0.00,,SKC,0.01,VWS V14.01,2013-01-05 05:32:00,
2013-01-04 23:37:00,11.6,9.0,30.09,NE,44,0.0,0.0,89,0.00,,SKC,0.01,VWS V14.01,2013-01-05 05:37:00,
2013-01-04 23:42:00,11.4,8.8,30.09,NE,44,0.0,0.0,89,0.00,,SKC,0.01,VWS V14.01,2013-01-05 05:42:00,
2013-01-04 23:47:00,11.4,9.0,30.09,NE,44,0.0,0.0,90,0.00,,SKC,0.01,VWS V14.01,2013-01-05 05:47:00,
2013-01-04 23:52:00,11.7,9.3,30.09,NE,44,0.0,0.0,90,0.00,,SKC,0.01,VWS V14.01,2013-01-05 05:52:00,
2013-01-04 23:57:00,12.3,10.2,30.09,NE,44,0.0,0.0,91,0.00,,SKC,0.01,VWS V14.01,2013-01-05 05:57:00,